Terminal Aerodrome Forecast
Issued by NWS

Current Version | Previous Version | Text Only | Print | Product List | Glossary On
Versions: 1 2 3 4 5 6 7 8 9 10 11 12 13 14 15 16 17 18 19 20
822
FTUS41 KGYX 062320
TAFPSM
TAF
KPSM 062320Z 0700/0724 22008KT P6SM SCT150
     FM070900 VRB03KT P6SM SCT200
     FM072200 02006KT P6SM SCT200=

USA.gov is the U.S. government's official web portal to all federal, state and local government web resources and services.